createdAt,value
2022-10-17T06:52:04.534Z,27.77
2022-10-17T07:19:27.174Z,30.97
2022-10-17T07:41:17.938Z,26.27
2022-10-17T08:01:04.400Z,21.03
2022-10-17T08:18:09.135Z,19.53
2022-10-17T08:33:33.790Z,23.48
2022-10-17T08:38:27.948Z,15.53
2022-10-17T08:54:04.188Z,16.80
2022-10-17T08:58:58.151Z,17.57
2022-10-17T09:04:09.531Z,15.60
2022-10-17T09:09:17.063Z,13.77
2022-10-17T09:14:28.281Z,20.97
2022-10-17T09:19:25.492Z,14.10
2022-10-17T09:24:25.474Z,14.48
2022-10-17T09:29:23.617Z,14.27
2022-10-17T09:34:18.225Z,16.42
2022-10-17T09:39:15.507Z,15.68
2022-10-17T09:44:21.739Z,14.55
2022-10-17T09:49:21.103Z,16.95
2022-10-17T09:54:22.293Z,15.63
2022-10-17T09:59:32.850Z,15.52
2022-10-17T10:04:30.390Z,15.38
2022-10-17T10:09:29.531Z,17.90
2022-10-17T10:14:29.648Z,16.55
2022-10-17T10:19:30.339Z,16.38
2022-10-17T10:24:30.344Z,15.23
2022-10-17T10:29:31.249Z,16.13
2022-10-17T10:34:29.073Z,14.45
2022-10-17T10:39:35.104Z,15.07
2022-10-17T10:44:33.086Z,15.93
2022-10-17T10:49:31.266Z,16.77
2022-10-17T10:54:31.133Z,17.88
2022-10-17T10:59:30.984Z,15.85
2022-10-17T11:04:31.740Z,16.92
2022-10-17T11:09:33.822Z,16.88
2022-10-17T11:14:38.374Z,18.90
2022-10-17T11:19:38.381Z,16.02
2022-10-17T11:24:37.280Z,17.67
2022-10-17T11:29:35.308Z,14.80
2022-10-17T11:34:32.939Z,15.73
2022-10-17T11:39:32.760Z,16.52
2022-10-17T11:44:31.155Z,15.63
2022-10-17T11:49:29.579Z,15.77
2022-10-17T11:54:28.042Z,16.25
2022-10-17T11:59:49.385Z,15.93
2022-10-17T12:05:01.990Z,19.13
2022-10-17T12:10:00.786Z,16.83
2022-10-17T12:14:56.461Z,17.83
2022-10-17T12:19:50.130Z,16.52
2022-10-17T12:24:45.724Z,15.80
2022-10-17T12:29:39.271Z,16.10
2022-10-17T12:34:34.377Z,15.88
2022-10-17T12:39:52.627Z,16.67
2022-10-17T12:44:47.890Z,17.92
2022-10-17T12:49:47.181Z,16.10
2022-10-17T12:54:47.850Z,16.63
2022-10-17T12:59:57.876Z,19.88
2022-10-17T13:04:58.862Z,18.75
2022-10-17T13:09:53.565Z,16.08
2022-10-17T13:14:48.629Z,17.05
2022-10-17T13:19:45.373Z,16.85
2022-10-17T13:24:42.408Z,18.67
2022-10-17T13:29:36.038Z,16.15
2022-10-17T13:34:30.550Z,17.35
2022-10-17T13:39:44.932Z,17.10
2022-10-17T13:44:43.502Z,17.00
2022-10-17T13:49:43.209Z,16.38
2022-10-17T13:54:40.412Z,16.88
2022-10-17T13:59:39.301Z,17.10
2022-10-17T14:04:56.654Z,19.70
2022-10-17T14:09:49.292Z,22.45
2022-10-17T14:15:09.285Z,18.00
2022-10-17T14:20:34.012Z,17.42
2022-10-17T14:25:35.534Z,17.60
2022-10-17T14:35:53.666Z,18.40
2022-10-17T14:40:52.206Z,16.35
2022-10-17T14:45:47.751Z,17.25
2022-10-17T14:50:42.323Z,17.77
2022-10-17T14:55:37.991Z,30.67
2022-10-17T15:00:31.643Z,31.05
2022-10-17T15:05:25.331Z,20.30
2022-10-17T15:10:34.367Z,26.05
2022-10-17T15:15:29.569Z,23.50
2022-10-17T15:20:26.313Z,22.48
2022-10-17T15:25:20.066Z,18.95
2022-10-17T15:30:22.239Z,20.63
2022-10-17T15:35:17.802Z,19.02
2022-10-17T15:40:16.993Z,31.15
2022-10-17T15:45:12.578Z,29.05
2022-10-17T15:50:08.922Z,25.50
2022-10-17T15:55:05.394Z,20.20
2022-10-17T16:00:01.305Z,25.13
2022-10-17T16:04:55.272Z,20.90
2022-10-17T16:09:48.969Z,25.10
2022-10-17T16:14:43.968Z,25.15
2022-10-17T16:19:37.442Z,29.75
2022-10-17T16:24:31.004Z,45.58
2022-10-17T16:29:24.583Z,28.65
2022-10-17T16:34:19.874Z,34.65
2022-10-17T16:39:13.740Z,33.35
2022-10-17T16:44:09.894Z,30.13
2022-10-17T16:49:05.033Z,31.17
2022-10-17T16:54:00.478Z,36.67
2022-10-17T16:58:54.760Z,31.70
2022-10-17T17:03:49.125Z,26.23
2022-10-17T17:08:44.253Z,28.80
2022-10-17T17:13:39.575Z,32.05
2022-10-17T17:18:33.187Z,31.50
2022-10-17T17:23:26.762Z,29.45
2022-10-17T17:28:20.366Z,29.42
2022-10-17T17:33:15.914Z,26.48
2022-10-17T17:38:09.441Z,23.85
2022-10-17T17:43:03.287Z,40.05
2022-10-17T17:47:56.814Z,37.15
2022-10-17T17:52:51.774Z,31.88
2022-10-17T17:57:45.327Z,27.23
2022-10-17T18:02:42.170Z,25.58
2022-10-17T18:07:38.516Z,25.33
2022-10-17T18:12:34.698Z,25.65
2022-10-17T18:17:28.258Z,26.05
2022-10-17T18:22:23.941Z,26.15
2022-10-17T18:27:19.657Z,25.63
2022-10-17T18:32:15.214Z,29.30
2022-10-17T18:37:09.319Z,29.25
2022-10-17T18:42:03.365Z,31.83
2022-10-17T18:47:03.022Z,30.92
